Time;durP1;ratioP1;P1;durP2;ratioP2;P2;SDS_P1;SDS_P2;PMS_P1;PMS_P2;Temp;Humidity;BMP_temperature;BMP_pressure;BME280_temperature;BME280_humidity;BME280_pressure;Samples;Min_cycle;Max_cycle;Signal;HPM_P1;HPM_P2
2024/02/18 00:01:23;;;;;;;;;;;;;;;;;;5093664;28;19908;-72
2024/02/18 00:03:49;;;;;;;;;;;;;;;;;;5094390;28;19961;-72
2024/02/18 00:06:15;;;;;;;;;;;;;;;;;;5094011;28;20002;-72
2024/02/18 00:08:41;;;;;;;;;;;;;;;;;;5093586;28;19912;-72
2024/02/18 00:11:07;;;;;;;;;;;;;;;;;;5093978;28;19909;-72
2024/02/18 00:13:34;;;;;;;;;;;;;;;;;;5075831;28;19960;-72
2024/02/18 00:16:00;;;;;;;;;;;;;;;;;;5093128;28;20368;-72
2024/02/18 00:18:25;;;;;;;;;;;;;;;;;;5094336;28;19908;-72
2024/02/18 00:20:51;;;;;;;;;;;;;;;;;;5093885;28;19962;-72
2024/02/18 00:23:17;;;;;;;;;;;;;;;;;;5075226;28;19912;-72
2024/02/18 00:25:43;;;;;;;;;;;;;;;;;;5093937;28;19943;-72
2024/02/18 00:28:09;;;;;;;;;;;;;;;;;;5094053;28;19915;-72
2024/02/18 00:30:35;;;;;;;;;;;;;;;;;;5093382;28;19909;-72
2024/02/18 00:33:01;;;;;;;;;;;;;;;;;;5093754;28;19909;-73
2024/02/18 00:35:27;;;;;;;;;;;;;;;;;;5075755;28;20019;-73
2024/02/18 00:37:53;;;;;;;;;;;;;;;;;;5093770;28;19916;-72
2024/02/18 00:40:19;;;;;;;;;;;;;;;;;;5097745;28;20283;-72
2024/02/18 00:42:45;;;;;;;;;;;;;;;;;;5097696;28;20292;-72
2024/02/18 00:45:12;;;;;;;;;;;;;;;;;;5079104;28;20284;-72
2024/02/18 00:47:38;;;;;;;;;;;;;;;;;;5079798;28;19948;-72
2024/02/18 00:50:04;;;;;;;;;;;;;;;;;;5097590;28;19958;-72
2024/02/18 00:52:30;;;;;;;;;;;;;;;;;;5097054;28;19965;-72
2024/02/18 00:54:56;;;;;;;;;;;;;;;;;;5097489;28;19908;-73
2024/02/18 00:57:22;;;;;;;;;;;;;;;;;;5097377;28;19939;-72
2024/02/18 00:59:48;;;;;;;;;;;;;;;;;;5078816;28;19998;-72
2024/02/18 01:02:14;;;;;;;;;;;;;;;;;;5079077;28;19931;-73
2024/02/18 01:04:40;;;;;;;;;;;;;;;;;;5078670;28;19912;-72
2024/02/18 01:07:06;;;;;;;;;;;;;;;;;;5097284;28;19908;-72
2024/02/18 01:09:32;;;;;;;;;;;;;;;;;;5097172;28;19960;-72
2024/02/18 01:11:58;;;;;;;;;;;;;;;;;;5097027;28;20031;-72
2024/02/18 01:14:24;;;;;;;;;;;;;;;;;;5097440;28;19908;-72
2024/02/18 01:16:50;;;;;;;;;;;;;;;;;;5097009;28;19942;-72
2024/02/18 01:19:16;;;;;;;;;;;;;;;;;;5096673;28;20057;-72
2024/02/18 01:21:42;;;;;;;;;;;;;;;;;;5097108;28;19955;-71
2024/02/18 01:24:08;;;;;;;;;;;;;;;;;;5078781;28;19919;-71
2024/02/18 01:26:34;;;;;;;;;;;;;;;;;;5096529;28;19947;-71
2024/02/18 01:29:00;;;;;;;;;;;;;;;;;;5096799;28;19943;-71
2024/02/18 01:31:26;;;;;;;;;;;;;;;;;;5096906;28;19931;-71
2024/02/18 01:33:52;;;;;;;;;;;;;;;;;;5096538;28;19908;-72
2024/02/18 01:36:18;;;;;;;;;;;;;;;;;;5096706;28;19948;-71
2024/02/18 01:38:43;;;;;;;;;;;;;;;;;;5096750;28;19908;-71
2024/02/18 01:41:10;;;;;;;;;;;;;;;;;;5096326;28;19961;-71
2024/02/18 01:43:36;;;;;;;;;;;;;;;;;;5096674;28;19995;-71
2024/02/18 01:46:02;;;;;;;;;;;;;;;;;;5096760;28;20368;-71
2024/02/18 01:48:28;;;;;;;;;;;;;;;;;;5095852;28;20360;-71
2024/02/18 01:50:54;;;;;;;;;;;;;;;;;;5096230;28;19908;-71
2024/02/18 01:53:20;;;;;;;;;;;;;;;;;;5096957;28;20463;-71
2024/02/18 01:55:46;;;;;;;;;;;;;;;;;;5095960;28;19908;-71
2024/02/18 01:58:12;;;;;;;;;;;;;;;;;;5096238;28;19961;-71
2024/02/18 02:00:39;;;;;;;;;;;;;;;;;;5096257;28;19908;-71
2024/02/18 02:03:05;;;;;;;;;;;;;;;;;;5095799;28;19908;-72
2024/02/18 02:05:31;;;;;;;;;;;;;;;;;;5077986;28;20028;-71
2024/02/18 02:07:57;;;;;;;;;;;;;;;;;;5077578;28;20007;-71
2024/02/18 02:10:23;;;;;;;;;;;;;;;;;;5096090;28;19995;-71
2024/02/18 02:12:49;;;;;;;;;;;;;;;;;;5096067;28;20008;-71
2024/02/18 02:15:15;;;;;;;;;;;;;;;;;;5095576;28;20314;-71
2024/02/18 02:17:41;;;;;;;;;;;;;;;;;;5095872;28;20014;-71
2024/02/18 02:20:10;;;;;;;;;;;;;;;;;;5077744;28;19908;-71
2024/02/18 02:22:36;;;;;;;;;;;;;;;;;;5077344;28;20020;-71
2024/02/18 02:25:02;;;;;;;;;;;;;;;;;;5095865;28;20357;-71
2024/02/18 02:27:28;;;;;;;;;;;;;;;;;;5096024;28;19913;-71
2024/02/18 02:29:54;;;;;;;;;;;;;;;;;;5095288;28;19909;-71
2024/02/18 02:32:19;;;;;;;;;;;;;;;;;;5077562;28;20386;-71
2024/02/18 02:34:45;;;;;;;;;;;;;;;;;;5095624;28;19912;-71
2024/02/18 02:37:11;;;;;;;;;;;;;;;;;;5095136;28;19923;-71
2024/02/18 02:39:37;;;;;;;;;;;;;;;;;;5095522;28;20287;-71
2024/02/18 02:42:05;;;;;;;;;;;;;;;;;;5095485;28;19931;-71
2024/02/18 02:44:31;;;;;;;;;;;;;;;;;;5094980;28;19951;-71
2024/02/18 02:46:56;;;;;;;;;;;;;;;;;;5077162;28;20313;-71
2024/02/18 02:49:22;;;;;;;;;;;;;;;;;;5095306;28;19908;-71
2024/02/18 02:51:48;;;;;;;;;;;;;;;;;;5094879;28;19908;-71
2024/02/18 02:54:14;;;;;;;;;;;;;;;;;;5095136;28;19909;-71
2024/02/18 02:56:40;;;;;;;;;;;;;;;;;;5095103;28;20300;-71
2024/02/18 02:59:06;;;;;;;;;;;;;;;;;;5094773;28;20288;-71
2024/02/18 03:01:32;;;;;;;;;;;;;;;;;;5094580;28;20280;-71
2024/02/18 03:03:58;;;;;;;;;;;;;;;;;;5095058;28;19909;-71
2024/02/18 03:06:24;;;;;;;;;;;;;;;;;;5094602;28;19915;-71
2024/02/18 03:08:50;;;;;;;;;;;;;;;;;;5094907;28;20304;-72
2024/02/18 03:11:16;;;;;;;;;;;;;;;;;;5094450;28;19915;-71
2024/02/18 03:13:42;;;;;;;;;;;;;;;;;;5094775;28;19908;-71
2024/02/18 03:16:08;;;;;;;;;;;;;;;;;;5094489;28;19947;-71
2024/02/18 03:18:34;;;;;;;;;;;;;;;;;;5094932;28;20215;-71
2024/02/18 03:21:00;;;;;;;;;;;;;;;;;;5095255;28;20399;-71
2024/02/18 03:23:27;;;;;;;;;;;;;;;;;;5094687;28;20473;-71
2024/02/18 03:25:54;;;;;;;;;;;;;;;;;;5094241;28;19915;-71
2024/02/18 03:28:20;;;;;;;;;;;;;;;;;;5094568;28;19908;-71
2024/02/18 03:30:50;;;;;;;;;;;;;;;;;;5094573;28;19915;-71
2024/02/18 03:33:16;;;;;;;;;;;;;;;;;;5094291;28;19909;-71
2024/02/18 03:35:42;;;;;;;;;;;;;;;;;;5094442;28;19999;-71
2024/02/18 03:38:08;;;;;;;;;;;;;;;;;;5094376;28;19917;-71
2024/02/18 03:40:35;;;;;;;;;;;;;;;;;;5093982;28;19915;-72
2024/02/18 03:43:01;;;;;;;;;;;;;;;;;;5094353;28;19915;-71
2024/02/18 03:45:27;;;;;;;;;;;;;;;;;;5076192;28;19908;-71
2024/02/18 03:47:53;;;;;;;;;;;;;;;;;;5093945;28;20391;-72
2024/02/18 03:50:19;;;;;;;;;;;;;;;;;;5094204;28;19919;-72
2024/02/18 03:52:45;;;;;;;;;;;;;;;;;;5075956;28;19991;-71
2024/02/18 03:55:11;;;;;;;;;;;;;;;;;;5093896;28;19912;-72
2024/02/18 03:57:37;;;;;;;;;;;;;;;;;;5094120;28;19916;-71
2024/02/18 04:00:05;;;;;;;;;;;;;;;;;;5094364;28;19908;-72
2024/02/18 04:02:30;;;;;;;;;;;;;;;;;;5093705;28;20021;-72
2024/02/18 04:04:56;;;;;;;;;;;;;;;;;;5094016;28;20339;-72
2024/02/18 04:07:22;;;;;;;;;;;;;;;;;;5093994;28;20265;-71
2024/02/18 04:09:48;;;;;;;;;;;;;;;;;;5093621;28;19977;-72
2024/02/18 04:12:14;;;;;;;;;;;;;;;;;;5075671;28;20060;-72
2024/02/18 04:14:40;;;;;;;;;;;;;;;;;;5093540;28;19912;-72
2024/02/18 04:17:06;;;;;;;;;;;;;;;;;;5093477;28;20296;-72
2024/02/18 04:19:32;;;;;;;;;;;;;;;;;;5093893;28;19908;-71
2024/02/18 04:21:58;;;;;;;;;;;;;;;;;;5075350;28;19930;-71
2024/02/18 04:24:24;;;;;;;;;;;;;;;;;;5093883;28;19961;-71
2024/02/18 04:26:50;;;;;;;;;;;;;;;;;;5093826;28;19912;-71
2024/02/18 04:29:16;;;;;;;;;;;;;;;;;;5093666;28;19954;-71
2024/02/18 04:31:42;;;;;;;;;;;;;;;;;;5093784;28;19923;-72
2024/02/18 04:34:08;;;;;;;;;;;;;;;;;;5093840;28;19912;-72
2024/02/18 04:36:34;;;;;;;;;;;;;;;;;;5093385;28;20007;-72
2024/02/18 04:39:00;;;;;;;;;;;;;;;;;;5093766;28;20391;-72
2024/02/18 04:41:26;;;;;;;;;;;;;;;;;;5093720;28;20381;-72
2024/02/18 04:43:52;;;;;;;;;;;;;;;;;;5093523;28;19908;-72
2024/02/18 04:46:17;;;;;;;;;;;;;;;;;;5094224;28;20245;-72
2024/02/18 04:48:43;;;;;;;;;;;;;;;;;;5093595;28;19908;-72
2024/02/18 04:51:09;;;;;;;;;;;;;;;;;;5093196;28;19915;-72
2024/02/18 04:53:35;;;;;;;;;;;;;;;;;;5093487;28;19998;-72
2024/02/18 04:56:01;;;;;;;;;;;;;;;;;;5093781;28;19912;-71
2024/02/18 04:58:27;;;;;;;;;;;;;;;;;;5093009;28;19916;-71
2024/02/18 05:00:53;;;;;;;;;;;;;;;;;;5093503;28;19914;-72
2024/02/18 05:03:21;;;;;;;;;;;;;;;;;;5093723;28;19908;-72
2024/02/18 05:05:47;;;;;;;;;;;;;;;;;;5093069;28;19918;-72
2024/02/18 05:08:13;;;;;;;;;;;;;;;;;;5093978;28;20377;-72
2024/02/18 05:10:40;;;;;;;;;;;;;;;;;;5093464;28;20001;-71
2024/02/18 05:13:06;;;;;;;;;;;;;;;;;;5093030;28;19991;-71
2024/02/18 05:15:32;;;;;;;;;;;;;;;;;;5093350;28;19998;-72
2024/02/18 05:17:58;;;;;;;;;;;;;;;;;;5092760;28;20460;-72
2024/02/18 05:20:24;;;;;;;;;;;;;;;;;;5093623;28;19915;-71
2024/02/18 05:22:50;;;;;;;;;;;;;;;;;;5093240;28;19912;-71
2024/02/18 05:25:16;;;;;;;;;;;;;;;;;;5095460;28;19908;-72
2024/02/18 05:27:42;;;;;;;;;;;;;;;;;;5097477;28;20363;-72
2024/02/18 05:30:08;;;;;;;;;;;;;;;;;;5097108;28;20298;-72
2024/02/18 05:32:34;;;;;;;;;;;;;;;;;;5096442;28;19915;-72
2024/02/18 05:35:00;;;;;;;;;;;;;;;;;;5096756;28;19909;-72
2024/02/18 05:37:26;;;;;;;;;;;;;;;;;;5096712;28;20369;-72
2024/02/18 05:39:52;;;;;;;;;;;;;;;;;;5096355;28;19909;-71
2024/02/18 05:42:18;;;;;;;;;;;;;;;;;;5096601;28;19954;-71
2024/02/18 05:44:44;;;;;;;;;;;;;;;;;;5096575;28;19951;-71
2024/02/18 05:47:10;;;;;;;;;;;;;;;;;;5096362;28;19908;-71
2024/02/18 05:49:36;;;;;;;;;;;;;;;;;;5096786;28;20406;-71
2024/02/18 05:52:02;;;;;;;;;;;;;;;;;;5096516;28;19943;-71
2024/02/18 05:54:28;;;;;;;;;;;;;;;;;;5096079;28;19951;-71
2024/02/18 05:56:54;;;;;;;;;;;;;;;;;;5096269;28;19916;-71
2024/02/18 05:59:20;;;;;;;;;;;;;;;;;;5096626;28;19916;-71
2024/02/18 06:01:45;;;;;;;;;;;;;;;;;;5095890;28;20003;-71
2024/02/18 06:04:11;;;;;;;;;;;;;;;;;;5078019;28;19908;-71
2024/02/18 06:06:37;;;;;;;;;;;;;;;;;;5096797;28;19954;-71
2024/02/18 06:09:04;;;;;;;;;;;;;;;;;;5095870;28;19915;-71
2024/02/18 06:11:30;;;;;;;;;;;;;;;;;;5096093;28;19919;-71
2024/02/18 06:13:56;;;;;;;;;;;;;;;;;;5095993;28;19912;-71
2024/02/18 06:16:22;;;;;;;;;;;;;;;;;;5095387;28;19920;-71
2024/02/18 06:18:48;;;;;;;;;;;;;;;;;;5096548;28;20356;-71
2024/02/18 06:21:14;;;;;;;;;;;;;;;;;;5095577;28;20404;-71
2024/02/18 06:23:40;;;;;;;;;;;;;;;;;;5095824;28;20433;-71
2024/02/18 06:26:06;;;;;;;;;;;;;;;;;;5096308;28;20264;-71
2024/02/18 06:28:32;;;;;;;;;;;;;;;;;;5095328;28;19953;-71
2024/02/18 06:30:58;;;;;;;;;;;;;;;;;;5095718;28;20284;-72
2024/02/18 06:33:24;;;;;;;;;;;;;;;;;;5077566;28;19909;-71
2024/02/18 06:35:50;;;;;;;;;;;;;;;;;;5095393;28;19908;-71
2024/02/18 06:38:16;;;;;;;;;;;;;;;;;;5095646;28;19967;-71
2024/02/18 06:40:42;;;;;;;;;;;;;;;;;;5096126;28;19915;-70
2024/02/18 06:43:08;;;;;;;;;;;;;;;;;;5095137;28;19908;-71
2024/02/18 06:45:34;;;;;;;;;;;;;;;;;;5095407;28;19990;-71
2024/02/18 06:48:00;;;;;;;;;;;;;;;;;;5095790;28;19916;-71
2024/02/18 06:50:25;;;;;;;;;;;;;;;;;;5094900;28;19915;-71
2024/02/18 06:52:51;;;;;;;;;;;;;;;;;;5095900;28;19908;-71
2024/02/18 06:55:17;;;;;;;;;;;;;;;;;;5095284;28;19909;-71
2024/02/18 06:57:46;;;;;;;;;;;;;;;;;;5094711;28;19923;-71
2024/02/18 07:00:12;;;;;;;;;;;;;;;;;;5095166;28;19908;-73
2024/02/18 07:02:38;;;;;;;;;;;;;;;;;;5095182;28;19954;-71
2024/02/18 07:05:04;;;;;;;;;;;;;;;;;;5094628;28;19908;-72
2024/02/18 07:07:30;;;;;;;;;;;;;;;;;;5095083;28;20342;-71
2024/02/18 07:09:56;;;;;;;;;;;;;;;;;;5094934;28;20279;-71
2024/02/18 07:12:22;;;;;;;;;;;;;;;;;;5094533;28;19961;-72
2024/02/18 07:14:48;;;;;;;;;;;;;;;;;;5094864;28;20010;-72
2024/02/18 07:17:19;;;;;;;;;;;;;;;;;;5094504;28;20003;-72
2024/02/18 07:19:45;;;;;;;;;;;;;;;;;;5094423;28;19909;-71
2024/02/18 07:22:12;;;;;;;;;;;;;;;;;;5094796;28;19917;-72
2024/02/18 07:24:38;;;;;;;;;;;;;;;;;;5094314;28;20004;-72
2024/02/18 07:27:04;;;;;;;;;;;;;;;;;;5094679;28;20384;-73
2024/02/18 07:29:30;;;;;;;;;;;;;;;;;;5094616;28;19915;-71
2024/02/18 07:31:56;;;;;;;;;;;;;;;;;;5094164;28;19908;-72
2024/02/18 07:34:21;;;;;;;;;;;;;;;;;;5076323;28;19908;-72
2024/02/18 07:36:47;;;;;;;;;;;;;;;;;;5094472;28;19916;-72
2024/02/18 07:39:13;;;;;;;;;;;;;;;;;;5094127;28;19931;-72
2024/02/18 07:41:39;;;;;;;;;;;;;;;;;;5076274;28;19915;-72
2024/02/18 07:44:06;;;;;;;;;;;;;;;;;;5094432;28;19908;-72
2024/02/18 07:46:32;;;;;;;;;;;;;;;;;;5093635;28;19944;-71
2024/02/18 07:48:58;;;;;;;;;;;;;;;;;;5094316;28;19908;-73
2024/02/18 07:51:24;;;;;;;;;;;;;;;;;;5094342;28;20321;-72
2024/02/18 07:53:50;;;;;;;;;;;;;;;;;;5093858;28;19909;-71
2024/02/18 07:56:16;;;;;;;;;;;;;;;;;;5094170;28;19930;-74
2024/02/18 07:58:42;;;;;;;;;;;;;;;;;;5076187;28;19908;-73
2024/02/18 08:01:08;;;;;;;;;;;;;;;;;;5093746;28;19920;-73
2024/02/18 08:03:34;;;;;;;;;;;;;;;;;;5094429;28;19915;-71
2024/02/18 08:06:00;;;;;;;;;;;;;;;;;;5076066;28;19908;-73
2024/02/18 08:08:26;;;;;;;;;;;;;;;;;;5093785;28;19908;-72
2024/02/18 08:10:52;;;;;;;;;;;;;;;;;;5094641;28;20371;-73
2024/02/18 08:13:18;;;;;;;;;;;;;;;;;;5094036;28;19908;-71
2024/02/18 08:15:43;;;;;;;;;;;;;;;;;;5093470;28;19908;-70
2024/02/18 08:18:10;;;;;;;;;;;;;;;;;;5093876;28;20407;-72
2024/02/18 08:20:37;;;;;;;;;;;;;;;;;;5094486;28;19908;-72
2024/02/18 08:23:03;;;;;;;;;;;;;;;;;;5093573;28;19909;-73
2024/02/18 08:25:29;;;;;;;;;;;;;;;;;;5093893;28;19968;-72
2024/02/18 08:27:55;;;;;;;;;;;;;;;;;;5093536;28;19908;-72
2024/02/18 08:30:21;;;;;;;;;;;;;;;;;;5094236;28;19920;-72
2024/02/18 08:32:47;;;;;;;;;;;;;;;;;;5075696;28;19912;-73
2024/02/18 08:35:14;;;;;;;;;;;;;;;;;;5093363;28;19914;-72
2024/02/18 08:37:40;;;;;;;;;;;;;;;;;;5093800;28;19927;-73
2024/02/18 08:40:07;;;;;;;;;;;;;;;;;;5093829;28;20296;-72
2024/02/18 08:42:33;;;;;;;;;;;;;;;;;;5093439;28;19908;-72
2024/02/18 08:44:59;;;;;;;;;;;;;;;;;;5093683;28;19977;-73
2024/02/18 08:47:25;;;;;;;;;;;;;;;;;;5093702;28;19915;-72
2024/02/18 08:49:51;;;;;;;;;;;;;;;;;;5093216;28;19913;-72
2024/02/18 08:52:17;;;;;;;;;;;;;;;;;;5094056;28;19908;-72
2024/02/18 08:54:43;;;;;;;;;;;;;;;;;;5093515;28;19916;-72
2024/02/18 08:57:09;;;;;;;;;;;;;;;;;;5093033;28;19923;-72
2024/02/18 08:59:35;;;;;;;;;;;;;;;;;;5095181;28;20379;-72
2024/02/18 09:02:01;;;;;;;;;;;;;;;;;;5097689;28;19908;-72
2024/02/18 09:04:28;;;;;;;;;;;;;;;;;;5096926;28;19908;-72
2024/02/18 09:06:54;;;;;;;;;;;;;;;;;;5097346;28;19908;-72
2024/02/18 09:09:20;;;;;;;;;;;;;;;;;;5079098;28;20411;-72
2024/02/18 09:11:46;;;;;;;;;;;;;;;;;;5096808;28;20368;-72
2024/02/18 09:14:12;;;;;;;;;;;;;;;;;;5097123;28;19908;-72
2024/02/18 09:16:38;;;;;;;;;;;;;;;;;;5096912;28;20292;-72
2024/02/18 09:19:04;;;;;;;;;;;;;;;;;;5096764;28;19987;-73
2024/02/18 09:21:30;;;;;;;;;;;;;;;;;;5097053;28;19908;-72
2024/02/18 09:23:56;;;;;;;;;;;;;;;;;;5096966;28;19914;-72
2024/02/18 09:26:22;;;;;;;;;;;;;;;;;;5096528;28;19909;-74
2024/02/18 09:28:48;;;;;;;;;;;;;;;;;;5096867;28;19931;-72
2024/02/18 09:31:14;;;;;;;;;;;;;;;;;;5096406;28;19943;-71
2024/02/18 09:33:40;;;;;;;;;;;;;;;;;;5078554;28;19944;-73
2024/02/18 09:36:06;;;;;;;;;;;;;;;;;;5096739;28;19939;-73
2024/02/18 09:38:31;;;;;;;;;;;;;;;;;;5096147;28;19917;-72
2024/02/18 09:40:57;;;;;;;;;;;;;;;;;;5096605;28;19908;-72
2024/02/18 09:43:24;;;;;;;;;;;;;;;;;;5096590;28;19908;-72
2024/02/18 09:45:50;;;;;;;;;;;;;;;;;;5096689;28;19915;-72
2024/02/18 09:48:16;;;;;;;;;;;;;;;;;;5096472;28;20014;-72
2024/02/18 09:50:42;;;;;;;;;;;;;;;;;;5096826;28;19909;-72
2024/02/18 09:53:08;;;;;;;;;;;;;;;;;;5077848;28;19983;-72
2024/02/18 09:55:34;;;;;;;;;;;;;;;;;;5096359;28;20018;-73
2024/02/18 09:58:00;;;;;;;;;;;;;;;;;;5078099;28;19920;-73
2024/02/18 10:00:26;;;;;;;;;;;;;;;;;;5096237;28;19915;-73
2024/02/18 10:02:52;;;;;;;;;;;;;;;;;;5096277;28;19915;-72
2024/02/18 10:05:18;;;;;;;;;;;;;;;;;;5096231;28;19908;-72
2024/02/18 10:07:45;;;;;;;;;;;;;;;;;;5095791;28;20002;-72
2024/02/18 10:10:11;;;;;;;;;;;;;;;;;;5096149;28;20004;-73
2024/02/18 10:12:38;;;;;;;;;;;;;;;;;;5096063;28;19962;-73
2024/02/18 10:15:04;;;;;;;;;;;;;;;;;;5095703;28;19912;-73
2024/02/18 10:17:30;;;;;;;;;;;;;;;;;;5095914;28;20357;-73
2024/02/18 10:19:56;;;;;;;;;;;;;;;;;;5096178;28;19962;-73
2024/02/18 10:25:42;;;;;;;;;;;;;;;;;;5092178;27;20369;-72
2024/02/18 10:28:08;;;;;;;;;;;;;;;;;;5091307;28;20015;-72
2024/02/18 10:30:34;;;;;;;;;;;;;;;;;;5091277;28;19909;-72
2024/02/18 10:38:02;;;;;;;;;;;;;;;;;;5071610;28;19923;-72
2024/02/18 10:40:28;;;;;;;;;;;;;;;;;;5071094;28;19967;-72
2024/02/18 10:43:26;;;;;;;;;;;;;;;;;;5111349;27;20265;-74
2024/02/18 10:45:52;;;;;;;;;;;;;;;;;;5112052;28;19991;-74
2024/02/18 10:48:18;;;;;;;;;;;;;;;;;;5110528;28;19955;-74
2024/02/18 10:50:44;;;;;;;;;;;;;;;;;;5111149;28;19916;-72
2024/02/18 10:53:54;;;;;;;;;;;;;;;;;;5112220;27;20014;-73
2024/02/18 10:58:25;;;;;;;;;;;;;;;;;;5091434;27;19916;-71
2024/02/18 11:01:44;;;;;;;;;;;;;;;;;;5091934;27;19916;-74
2024/02/18 11:04:10;;;;;;;;;;;;;;;;;;5090877;28;20452;-72
2024/02/18 11:06:36;;;;;;;;;;;;;;;;;;5089946;28;19912;-73
2024/02/18 11:09:02;;;;;;;;;;;;;;;;;;5091139;28;19938;-73
2024/02/18 11:15:36;;;;;;;;;;;;;;;;;;5071663;28;19917;-72
2024/02/18 11:18:02;;;;;;;;;;;;;;;;;;5070625;28;20015;-73
2024/02/18 11:20:29;;;;;;;;;;;;;;;;;;5070969;28;19989;-72
2024/02/18 11:22:56;;;;;;;;;;;;;;;;;;5070992;28;19909;-73
2024/02/18 11:27:36;;;;;;;;;;;;;;;;;;5091725;27;20288;-72
2024/02/18 11:30:02;;;;;;;;;;;;;;;;;;5091874;28;19912;-74
2024/02/18 11:32:28;;;;;;;;;;;;;;;;;;5089551;28;19908;-74
2024/02/18 11:34:54;;;;;;;;;;;;;;;;;;5091488;28;19962;-74
2024/02/18 11:39:41;;;;;;;;;;;;;;;;;;5111362;27;20375;-72
2024/02/18 11:42:07;;;;;;;;;;;;;;;;;;5111638;28;20007;-72
2024/02/18 11:50:05;;;;;;;;;;;;;;;;;;5091659;27;19919;-73
2024/02/18 11:52:30;;;;;;;;;;;;;;;;;;5091070;28;20000;-72
2024/02/18 11:56:49;;;;;;;;;;;;;;;;;;5092154;27;19923;-73
2024/02/18 12:06:54;;;;;;;;;;;;;;;;;;5091374;27;19919;-73
2024/02/18 12:09:25;;;;;;;;;;;;;;;;;;5091533;28;20002;-73
2024/02/18 12:11:51;;;;;;;;;;;;;;;;;;5091703;28;20077;-73
2024/02/18 12:14:20;;;;;;;;;;;;;;;;;;5090881;28;19908;-72
2024/02/18 12:16:46;;;;;;;;;;;;;;;;;;5091214;28;19909;-73
2024/02/18 12:23:42;;;;;;;;;;;;;;;;;;5174637;27;19915;-73
2024/02/18 12:26:08;;;;;;;;;;;;;;;;;;5173960;27;19954;-72
2024/02/18 12:29:37;;;;;;;;;;;;;;;;;;5112509;27;19916;-73
2024/02/18 12:35:55;;;;;;;;;;;;;;;;;;5152635;27;20375;-74
2024/02/18 12:38:21;;;;;;;;;;;;;;;;;;5152955;27;20252;-73
2024/02/18 12:40:47;;;;;;;;;;;;;;;;;;5152905;27;19968;-73
2024/02/18 12:43:13;;;;;;;;;;;;;;;;;;5133956;27;19912;-74
2024/02/18 12:48:00;;;;;;;;;;;;;;;;;;5071044;28;19923;-75
2024/02/18 12:50:26;;;;;;;;;;;;;;;;;;5071678;28;19919;-72
2024/02/18 12:52:52;;;;;;;;;;;;;;;;;;5071126;28;19913;-72
2024/02/18 12:57:26;;;;;;;;;;;;;;;;;;5092111;27;19920;-73
2024/02/18 13:01:40;;;;;;;;;;;;;;;;;;5091601;28;19916;-71
2024/02/18 13:04:06;;;;;;;;;;;;;;;;;;5090963;28;19965;-74
2024/02/18 13:09:47;;;;;;;;;;;;;;;;;;5071107;28;19923;-72
2024/02/18 13:12:13;;;;;;;;;;;;;;;;;;5071106;28;19958;-72
2024/02/18 13:14:41;;;;;;;;;;;;;;;;;;5071063;28;19908;-72
2024/02/18 13:17:07;;;;;;;;;;;;;;;;;;5070603;28;19913;-72
2024/02/18 13:19:33;;;;;;;;;;;;;;;;;;5071011;28;20434;-72
2024/02/18 13:21:59;;;;;;;;;;;;;;;;;;5069688;28;20384;-73
2024/02/18 13:24:25;;;;;;;;;;;;;;;;;;5070657;28;19948;-72
2024/02/18 13:30:57;;;;;;;;;;;;;;;;;;5111885;27;19916;-73
2024/02/18 13:34:21;;;;;;;;;;;;;;;;;;5092242;27;19917;-73
2024/02/18 13:36:49;;;;;;;;;;;;;;;;;;5090141;28;20002;-72
2024/02/18 13:41:19;;;;;;;;;;;;;;;;;;5092244;27;19916;-72
2024/02/18 13:43:45;;;;;;;;;;;;;;;;;;5091357;28;19919;-72
2024/02/18 13:46:11;;;;;;;;;;;;;;;;;;5089730;28;19954;-72
2024/02/18 13:48:37;;;;;;;;;;;;;;;;;;5091553;28;19912;-72
2024/02/18 13:51:03;;;;;;;;;;;;;;;;;;5091295;28;19940;-72
2024/02/18 13:53:29;;;;;;;;;;;;;;;;;;5090809;28;19920;-73
2024/02/18 13:57:28;;;;;;;;;;;;;;;;;;5071894;28;19923;-71
2024/02/18 13:59:56;;;;;;;;;;;;;;;;;;5069495;28;19913;-72
2024/02/18 14:02:22;;;;;;;;;;;;;;;;;;5071085;28;19931;-72
2024/02/18 14:04:48;;;;;;;;;;;;;;;;;;5071316;28;19913;-72
2024/02/18 14:07:19;;;;;;;;;;;;;;;;;;5070524;28;19909;-73
2024/02/18 14:11:22;;;;;;;;;;;;;;;;;;5112587;27;20390;-72
2024/02/18 14:13:48;;;;;;;;;;;;;;;;;;5111329;28;19919;-72
2024/02/18 14:16:14;;;;;;;;;;;;;;;;;;5111711;28;19908;-72
2024/02/18 14:18:40;;;;;;;;;;;;;;;;;;5111660;28;19916;-72
2024/02/18 14:26:14;;;;;;;;;;;;;;;;;;5092116;27;19922;-73
2024/02/18 14:30:35;;;;;;;;;;;;;;;;;;5112561;27;19919;-73
2024/02/18 14:33:03;;;;;;;;;;;;;;;;;;5112077;28;19912;-74
2024/02/18 14:35:29;;;;;;;;;;;;;;;;;;5111241;28;20007;-72
2024/02/18 14:37:55;;;;;;;;;;;;;;;;;;5111601;28;19951;-71
2024/02/18 14:40:21;;;;;;;;;;;;;;;;;;5111835;28;19958;-72
2024/02/18 14:42:48;;;;;;;;;;;;;;;;;;5111105;28;20400;-72
2024/02/18 14:45:44;;;;;;;;;;;;;;;;;;5071663;28;19923;-71
2024/02/18 14:48:10;;;;;;;;;;;;;;;;;;5071202;28;20438;-72
2024/02/18 14:53:57;;;;;;;;;;;;;;;;;;5092202;28;19923;-72
2024/02/18 14:56:23;;;;;;;;;;;;;;;;;;5090987;28;20352;-71
2024/02/18 14:59:50;;;;;;;;;;;;;;;;;;5092144;27;19922;-71
2024/02/18 15:02:16;;;;;;;;;;;;;;;;;;5090920;28;19955;-72
2024/02/18 15:04:42;;;;;;;;;;;;;;;;;;5091292;28;19909;-72
2024/02/18 15:07:09;;;;;;;;;;;;;;;;;;5091306;28;20000;-72
2024/02/18 15:11:26;;;;;;;;;;;;;;;;;;5092141;27;19916;-73
2024/02/18 15:16:03;;;;;;;;;;;;;;;;;;5173585;27;20481;-72
2024/02/18 15:18:29;;;;;;;;;;;;;;;;;;5173702;27;19911;-71
2024/02/18 15:21:32;;;;;;;;;;;;;;;;;;5092330;27;19916;-74
2024/02/18 15:26:12;;;;;;;;;;;;;;;;;;5092211;27;19916;-73
2024/02/18 15:28:38;;;;;;;;;;;;;;;;;;5091746;28;20007;-72
2024/02/18 15:31:07;;;;;;;;;;;;;;;;;;5090959;28;20284;-74
2024/02/18 15:33:33;;;;;;;;;;;;;;;;;;5091237;28;19908;-73
2024/02/18 15:36:51;;;;;;;;;;;;;;;;;;5112188;27;20271;-73
2024/02/18 15:39:17;;;;;;;;;;;;;;;;;;5110528;28;19995;-72
2024/02/18 15:42:33;;;;;;;;;;;;;;;;;;5112151;27;19923;-72
2024/02/18 15:44:59;;;;;;;;;;;;;;;;;;5111400;28;19919;-71
2024/02/18 15:47:26;;;;;;;;;;;;;;;;;;5111690;28;20329;-72
2024/02/18 15:51:46;;;;;;;;;;;;;;;;;;5111679;27;20003;-73
2024/02/18 15:57:33;;;;;;;;;;;;;;;;;;5112568;27;19912;-73
2024/02/18 15:59:59;;;;;;;;;;;;;;;;;;5110028;28;19998;-71
2024/02/18 16:02:25;;;;;;;;;;;;;;;;;;5111673;28;19912;-71
2024/02/18 16:04:56;;;;;;;;;;;;;;;;;;5110381;28;19961;-71
2024/02/18 16:07:22;;;;;;;;;;;;;;;;;;5111550;28;19912;-70
2024/02/18 16:09:48;;;;;;;;;;;;;;;;;;5111448;28;19962;-71
2024/02/18 16:12:14;;;;;;;;;;;;;;;;;;5110969;28;20428;-72
2024/02/18 16:14:40;;;;;;;;;;;;;;;;;;5111378;28;19964;-72
2024/02/18 16:17:06;;;;;;;;;;;;;;;;;;5109990;28;19927;-71
2024/02/18 16:19:31;;;;;;;;;;;;;;;;;;5111035;28;20154;-72
2024/02/18 16:21:57;;;;;;;;;;;;;;;;;;5111283;28;19908;-72
2024/02/18 16:24:23;;;;;;;;;;;;;;;;;;5111256;28;19914;-71
2024/02/18 16:26:51;;;;;;;;;;;;;;;;;;5111114;28;19908;-73
2024/02/18 16:29:17;;;;;;;;;;;;;;;;;;5111072;28;19969;-72
2024/02/18 16:31:42;;;;;;;;;;;;;;;;;;5109827;28;19916;-72
2024/02/18 16:34:08;;;;;;;;;;;;;;;;;;5109444;28;19919;-71
2024/02/18 16:36:34;;;;;;;;;;;;;;;;;;5111243;28;19916;-72
2024/02/18 16:39:00;;;;;;;;;;;;;;;;;;5110929;28;19908;-72
2024/02/18 16:41:26;;;;;;;;;;;;;;;;;;5110769;28;19908;-70
2024/02/18 16:43:52;;;;;;;;;;;;;;;;;;5110845;28;19912;-73
2024/02/18 16:46:19;;;;;;;;;;;;;;;;;;5110728;28;19915;-71
2024/02/18 16:48:45;;;;;;;;;;;;;;;;;;5110502;28;19908;-71
2024/02/18 16:51:13;;;;;;;;;;;;;;;;;;5110778;28;20360;-71
2024/02/18 16:53:39;;;;;;;;;;;;;;;;;;5110635;28;20364;-71
2024/02/18 16:56:05;;;;;;;;;;;;;;;;;;5108615;28;19927;-71
2024/02/18 16:58:32;;;;;;;;;;;;;;;;;;5110582;28;19998;-72
2024/02/18 17:00:58;;;;;;;;;;;;;;;;;;5109229;28;19908;-70
2024/02/18 17:03:24;;;;;;;;;;;;;;;;;;5110131;28;20416;-71
2024/02/18 17:05:52;;;;;;;;;;;;;;;;;;5110456;28;20315;-71
2024/02/18 17:08:18;;;;;;;;;;;;;;;;;;5099856;28;19978;-70
2024/02/18 17:10:44;;;;;;;;;;;;;;;;;;5095687;28;19909;-71
2024/02/18 17:13:10;;;;;;;;;;;;;;;;;;5096791;28;19987;-70
2024/02/18 17:15:36;;;;;;;;;;;;;;;;;;5096287;28;19912;-70
2024/02/18 17:18:02;;;;;;;;;;;;;;;;;;5096561;28;19920;-71
2024/02/18 17:20:28;;;;;;;;;;;;;;;;;;5096655;28;19909;-71
2024/02/18 17:22:54;;;;;;;;;;;;;;;;;;5094899;28;19952;-72
2024/02/18 17:25:20;;;;;;;;;;;;;;;;;;5097078;28;19936;-71
2024/02/18 17:27:46;;;;;;;;;;;;;;;;;;5096448;28;19921;-71
2024/02/18 17:30:12;;;;;;;;;;;;;;;;;;5095981;28;19919;-71
2024/02/18 17:32:38;;;;;;;;;;;;;;;;;;5096303;28;19908;-71
2024/02/18 17:35:04;;;;;;;;;;;;;;;;;;5096317;28;19908;-71
2024/02/18 17:37:30;;;;;;;;;;;;;;;;;;5095860;28;20008;-70
2024/02/18 17:39:56;;;;;;;;;;;;;;;;;;5096212;28;19931;-70
2024/02/18 17:42:22;;;;;;;;;;;;;;;;;;5094876;28;19912;-70
2024/02/18 17:44:48;;;;;;;;;;;;;;;;;;5094497;28;19908;-72
2024/02/18 17:47:14;;;;;;;;;;;;;;;;;;5096653;28;20379;-71
2024/02/18 17:49:41;;;;;;;;;;;;;;;;;;5096061;28;19908;-70
2024/02/18 17:52:08;;;;;;;;;;;;;;;;;;5095747;28;20267;-70
2024/02/18 17:54:34;;;;;;;;;;;;;;;;;;5096245;28;19908;-71
2024/02/18 17:57:00;;;;;;;;;;;;;;;;;;5094429;28;19963;-70
2024/02/18 17:59:26;;;;;;;;;;;;;;;;;;5095607;28;20288;-70
2024/02/18 18:01:52;;;;;;;;;;;;;;;;;;5095754;28;20303;-70
2024/02/18 18:04:18;;;;;;;;;;;;;;;;;;5095784;28;19908;-71
2024/02/18 18:06:44;;;;;;;;;;;;;;;;;;5095258;28;19909;-71
2024/02/18 18:09:10;;;;;;;;;;;;;;;;;;5094333;28;19908;-70